createdAt,value
2022-08-26T00:01:10.566Z,7.30
2022-08-26T00:04:41.427Z,7.00
2022-08-26T00:08:13.592Z,8.30
2022-08-26T00:11:43.429Z,7.00
2022-08-26T00:14:59.613Z,7.00
2022-08-26T00:18:31.426Z,7.30
2022-08-26T00:22:08.620Z,6.40
2022-08-26T00:25:38.437Z,7.50
2022-08-26T00:29:12.585Z,6.90
2022-08-26T00:32:43.966Z,7.40
2022-08-26T00:36:20.389Z,7.30
2022-08-26T00:39:54.435Z,6.40
2022-08-26T00:43:25.639Z,6.30
2022-08-26T00:46:53.434Z,6.10
2022-08-26T00:50:25.586Z,7.50
2022-08-26T00:54:00.431Z,6.50
2022-08-26T00:57:34.586Z,6.60
2022-08-26T01:04:45.097Z,7.20
2022-08-26T01:07:34.752Z,7.00
2022-08-26T01:10:26.550Z,7.70
2022-08-26T01:13:14.217Z,5.90
2022-08-26T01:16:04.210Z,7.80
2022-08-26T01:18:55.426Z,6.20
2022-08-26T01:21:54.973Z,7.30
2022-08-26T01:24:42.125Z,6.70
2022-08-26T01:27:32.500Z,6.00
2022-08-26T01:30:21.152Z,6.70
2022-08-26T01:33:15.230Z,6.50
2022-08-26T01:36:03.091Z,6.40
2022-08-26T01:38:49.892Z,7.40
2022-08-26T01:41:38.137Z,6.60
2022-08-26T01:44:29.270Z,7.70
2022-08-26T01:47:22.970Z,5.60
2022-08-26T01:50:27.773Z,6.50
2022-08-26T01:53:19.909Z,5.90
2022-08-26T01:56:10.146Z,6.10
2022-08-26T01:59:00.842Z,6.10
2022-08-26T02:01:48.971Z,5.80
2022-08-26T02:05:05.583Z,6.60
2022-08-26T02:07:53.555Z,6.40
2022-08-26T02:10:41.242Z,6.80
2022-08-26T02:13:33.433Z,6.80
2022-08-26T02:16:24.012Z,6.10
2022-08-26T02:19:24.413Z,6.20
2022-08-26T02:22:16.188Z,6.10
2022-08-26T02:25:39.490Z,6.60
2022-08-26T02:28:31.269Z,6.80
2022-08-26T02:31:18.941Z,6.90
2022-08-26T02:34:16.683Z,6.50
2022-08-26T02:37:07.932Z,6.50
2022-08-26T02:39:54.729Z,6.80
2022-08-26T02:42:42.187Z,6.60
2022-08-26T02:45:29.829Z,6.20
2022-08-26T02:48:19.253Z,5.10
2022-08-26T02:51:06.104Z,6.30
2022-08-26T02:53:53.699Z,5.30
2022-08-26T02:56:40.661Z,6.40
2022-08-26T02:59:27.473Z,5.70
2022-08-26T03:02:17.395Z,5.50
2022-08-26T03:05:05.191Z,6.70
2022-08-26T03:07:52.812Z,4.50
2022-08-26T03:10:41.393Z,5.50
2022-08-26T03:13:29.725Z,5.40
2022-08-26T03:16:17.614Z,6.10
2022-08-26T03:19:07.376Z,5.30
2022-08-26T03:21:57.871Z,5.70
2022-08-26T03:24:46.106Z,5.30
2022-08-26T03:27:34.356Z,5.70
2022-08-26T03:30:44.708Z,6.20
2022-08-26T03:33:32.290Z,6.40
2022-08-26T03:36:19.800Z,6.30
2022-08-26T03:39:07.244Z,5.50
2022-08-26T03:41:55.494Z,5.60
2022-08-26T03:44:42.553Z,5.90
2022-08-26T03:47:31.279Z,6.40
2022-08-26T03:50:22.836Z,6.30
2022-08-26T03:53:13.152Z,5.50
2022-08-26T03:56:00.584Z,6.50
2022-08-26T03:58:47.344Z,5.20
2022-08-26T04:01:35.268Z,6.50
2022-08-26T04:04:22.866Z,6.70
2022-08-26T04:07:12.539Z,5.60
2022-08-26T04:09:59.726Z,7.10
2022-08-26T04:12:46.744Z,6.30
2022-08-26T04:15:33.942Z,6.50
2022-08-26T04:18:22.251Z,5.30
2022-08-26T04:21:10.016Z,5.00
2022-08-26T04:24:00.588Z,5.90
2022-08-26T04:26:52.373Z,6.60
2022-08-26T04:29:41.321Z,5.80
2022-08-26T04:32:28.622Z,6.20
2022-08-26T04:35:15.667Z,5.20
2022-08-26T04:38:20.059Z,6.50
2022-08-26T04:41:15.082Z,6.20
2022-08-26T04:44:04.868Z,6.70
2022-08-26T04:46:52.282Z,6.40
2022-08-26T04:49:40.569Z,6.40
2022-08-26T04:52:29.715Z,5.70
2022-08-26T04:55:17.805Z,6.60
2022-08-26T04:58:10.135Z,6.20
2022-08-26T05:00:58.510Z,6.50
2022-08-26T05:03:46.614Z,6.20
2022-08-26T05:06:35.478Z,6.80
2022-08-26T05:09:24.421Z,6.70
2022-08-26T05:12:11.973Z,6.30
2022-08-26T05:15:00.288Z,6.30
2022-08-26T05:17:47.882Z,6.80
2022-08-26T05:20:46.847Z,6.80
2022-08-26T05:23:36.100Z,6.30
2022-08-26T05:26:26.801Z,6.80
2022-08-26T05:29:14.238Z,6.70
2022-08-26T05:32:01.938Z,6.00
2022-08-26T05:34:54.167Z,5.60
2022-08-26T05:37:41.137Z,6.60
2022-08-26T05:40:29.049Z,6.10
2022-08-26T05:43:17.396Z,6.80
2022-08-26T05:46:07.825Z,6.20
2022-08-26T05:48:58.330Z,6.20
2022-08-26T05:51:47.474Z,5.50
2022-08-26T05:54:35.250Z,6.30
2022-08-26T05:57:23.065Z,6.50
2022-08-26T06:00:11.900Z,5.70
2022-08-26T06:03:01.456Z,5.00
2022-08-26T06:05:48.679Z,5.10
2022-08-26T06:08:36.974Z,6.10
2022-08-26T06:11:32.331Z,5.30
2022-08-26T06:14:19.051Z,5.60
2022-08-26T06:17:11.143Z,4.20
2022-08-26T06:20:00.815Z,5.60
2022-08-26T06:23:06.837Z,4.70
2022-08-26T06:25:55.478Z,5.20
2022-08-26T06:28:45.537Z,6.00
2022-08-26T06:31:36.653Z,4.70
2022-08-26T06:34:29.684Z,5.60
2022-08-26T06:37:17.353Z,5.70
2022-08-26T06:40:06.203Z,4.50
2022-08-26T06:42:53.367Z,4.60
2022-08-26T06:45:41.347Z,4.70
2022-08-26T06:48:28.225Z,4.40
2022-08-26T06:51:22.340Z,5.40
2022-08-26T06:54:10.975Z,6.10
2022-08-26T06:56:58.292Z,5.70
2022-08-26T06:59:45.605Z,6.20
2022-08-26T07:02:32.178Z,5.30
2022-08-26T07:05:19.202Z,6.60
2022-08-26T07:08:06.345Z,6.10
2022-08-26T07:10:53.612Z,7.20
2022-08-26T07:13:43.146Z,6.50
2022-08-26T07:16:30.179Z,6.10
2022-08-26T07:19:31.129Z,6.60
2022-08-26T07:22:19.129Z,5.50
2022-08-26T07:25:08.545Z,4.90
2022-08-26T07:27:55.514Z,5.60
2022-08-26T07:30:42.749Z,5.30
2022-08-26T07:33:30.298Z,5.80
2022-08-26T07:36:18.963Z,5.40
2022-08-26T07:39:07.116Z,5.20
2022-08-26T07:41:54.381Z,5.90
2022-08-26T07:44:41.405Z,5.80
2022-08-26T07:47:27.998Z,6.40
2022-08-26T07:50:15.490Z,6.30
2022-08-26T07:53:06.869Z,6.00
2022-08-26T07:55:59.303Z,6.40
2022-08-26T07:58:50.484Z,6.50
2022-08-26T08:01:39.053Z,6.30
2022-08-26T08:04:28.562Z,6.60
2022-08-26T08:07:15.879Z,5.70
2022-08-26T08:10:05.592Z,5.50
2022-08-26T08:12:57.867Z,3.90
2022-08-26T08:15:46.143Z,4.80
2022-08-26T08:18:33.286Z,5.20
2022-08-26T08:21:23.640Z,4.30
2022-08-26T08:24:12.055Z,3.80
2022-08-26T08:27:00.965Z,5.40
2022-08-26T08:29:48.052Z,4.40
2022-08-26T08:32:38.407Z,4.70
2022-08-26T08:35:26.604Z,3.50
2022-08-26T08:38:13.739Z,3.80
2022-08-26T08:41:01.149Z,3.80
2022-08-26T08:43:53.151Z,3.40
2022-08-26T08:46:43.279Z,3.90
2022-08-26T08:49:31.968Z,3.60
2022-08-26T08:52:32.336Z,4.50
2022-08-26T08:55:19.346Z,3.90
2022-08-26T08:58:16.401Z,3.80
2022-08-26T09:01:12.301Z,3.70
2022-08-26T09:04:18.630Z,3.50
2022-08-26T09:07:10.565Z,3.90
2022-08-26T09:10:05.618Z,3.20
2022-08-26T09:12:52.572Z,2.80
2022-08-26T09:16:03.307Z,3.10
2022-08-26T09:19:18.873Z,3.30
2022-08-26T09:22:09.302Z,2.70
2022-08-26T09:24:56.736Z,2.60
2022-08-26T09:27:50.473Z,2.50
2022-08-26T09:30:37.792Z,3.10
2022-08-26T09:33:30.249Z,2.70
2022-08-26T09:36:44.548Z,2.90
2022-08-26T09:39:37.851Z,3.20
2022-08-26T09:42:25.636Z,3.10
2022-08-26T09:45:13.302Z,3.50
2022-08-26T09:48:02.496Z,3.00
2022-08-26T09:50:55.500Z,2.80
2022-08-26T09:53:59.007Z,3.20
2022-08-26T09:56:46.659Z,3.00
2022-08-26T09:59:33.787Z,2.60
2022-08-26T10:02:34.727Z,2.70
2022-08-26T10:05:35.137Z,3.10
2022-08-26T10:08:27.666Z,3.20
2022-08-26T10:11:22.764Z,3.00
2022-08-26T10:14:25.062Z,2.40
2022-08-26T10:17:37.125Z,3.20
2022-08-26T10:20:27.547Z,2.80
2022-08-26T10:23:18.878Z,3.00
2022-08-26T10:26:39.983Z,2.70
2022-08-26T10:29:49.138Z,2.00
2022-08-26T10:32:45.930Z,3.10
2022-08-26T10:35:36.450Z,2.80
2022-08-26T10:38:35.799Z,3.00
2022-08-26T10:41:43.460Z,2.10
2022-08-26T10:44:41.055Z,2.60
2022-08-26T10:47:41.611Z,3.60
2022-08-26T10:50:36.115Z,2.90
2022-08-26T10:53:44.322Z,3.40
2022-08-26T10:56:49.280Z,2.90
2022-08-26T10:59:57.517Z,3.60
2022-08-26T11:02:50.522Z,3.90
2022-08-26T11:05:37.574Z,7.40
2022-08-26T11:08:30.018Z,2.20
2022-08-26T11:11:42.350Z,2.60
2022-08-26T11:14:53.642Z,2.60
2022-08-26T11:17:46.431Z,2.10
2022-08-26T11:20:41.775Z,2.30
2022-08-26T11:23:28.976Z,2.70
2022-08-26T11:26:35.679Z,2.70
2022-08-26T11:29:59.435Z,1.50
2022-08-26T11:32:55.648Z,2.10
2022-08-26T11:35:42.441Z,2.10
2022-08-26T11:38:32.620Z,2.60
2022-08-26T11:41:23.029Z,1.20
2022-08-26T11:44:11.344Z,1.90
2022-08-26T11:47:11.398Z,1.90
2022-08-26T11:50:19.826Z,2.40
2022-08-26T11:53:07.776Z,2.50
2022-08-26T11:55:58.302Z,1.80
2022-08-26T11:58:48.762Z,1.70
2022-08-26T12:01:43.574Z,2.10
2022-08-26T12:04:33.326Z,1.90
2022-08-26T12:07:30.187Z,2.40
2022-08-26T12:10:33.823Z,2.60
2022-08-26T12:13:26.644Z,2.40
2022-08-26T12:16:13.526Z,2.30
2022-08-26T12:19:01.534Z,2.10
2022-08-26T12:21:49.720Z,2.90
2022-08-26T12:24:44.376Z,2.70
2022-08-26T12:27:39.935Z,2.30
2022-08-26T12:30:28.882Z,2.30
2022-08-26T12:33:23.021Z,2.70
2022-08-26T12:36:12.485Z,2.70
2022-08-26T12:39:11.945Z,1.90
2022-08-26T12:42:23.353Z,1.80
2022-08-26T12:45:10.450Z,1.90
2022-08-26T12:48:02.097Z,2.50
2022-08-26T12:51:06.584Z,2.40
2022-08-26T12:54:11.760Z,2.40
2022-08-26T12:57:09.812Z,1.90
2022-08-26T13:00:35.641Z,1.90
2022-08-26T13:04:00.466Z,1.80
2022-08-26T13:07:40.499Z,2.70
2022-08-26T13:10:40.168Z,2.10
2022-08-26T13:13:26.918Z,2.60
2022-08-26T13:16:14.388Z,1.70
2022-08-26T13:19:04.407Z,2.30
2022-08-26T13:21:54.568Z,2.10
2022-08-26T13:24:43.443Z,2.30
2022-08-26T13:27:30.670Z,2.10
2022-08-26T13:30:17.696Z,2.60
2022-08-26T13:33:04.727Z,2.80
2022-08-26T13:35:51.600Z,2.10
2022-08-26T13:38:38.326Z,3.00
2022-08-26T13:41:29.115Z,2.20
2022-08-26T13:44:17.450Z,2.20
2022-08-26T13:47:07.445Z,2.50
2022-08-26T13:50:20.189Z,2.40
2022-08-26T13:53:20.198Z,3.10
2022-08-26T13:56:10.481Z,2.30
2022-08-26T13:59:07.806Z,1.90
2022-08-26T14:01:54.386Z,2.50
2022-08-26T14:04:42.086Z,2.60
2022-08-26T14:07:28.780Z,2.50
2022-08-26T14:10:15.790Z,3.00
2022-08-26T14:13:02.631Z,2.10
2022-08-26T14:15:53.114Z,2.70
2022-08-26T14:18:43.656Z,2.60
2022-08-26T14:21:38.838Z,2.90
2022-08-26T14:24:25.291Z,2.80
2022-08-26T14:27:18.841Z,2.50
2022-08-26T14:30:12.177Z,2.70
2022-08-26T14:33:05.883Z,2.50
2022-08-26T14:36:19.631Z,2.80
2022-08-26T14:39:14.484Z,3.20
2022-08-26T14:42:10.188Z,2.80
2022-08-26T14:45:07.420Z,2.20
2022-08-26T14:48:00.496Z,2.90
2022-08-26T14:50:54.204Z,3.30
2022-08-26T14:54:06.774Z,2.70
2022-08-26T14:57:05.716Z,2.10
2022-08-26T14:59:58.811Z,2.50
2022-08-26T15:02:52.202Z,2.20
2022-08-26T15:05:48.162Z,1.80
2022-08-26T15:08:42.045Z,2.40
2022-08-26T15:11:35.425Z,2.50
2022-08-26T15:14:32.826Z,2.30
2022-08-26T15:17:27.542Z,2.30
2022-08-26T15:20:21.078Z,2.20
2022-08-26T15:23:08.088Z,1.90
2022-08-26T15:25:55.261Z,2.70
2022-08-26T15:28:42.436Z,2.60
2022-08-26T15:31:33.900Z,2.60
2022-08-26T15:34:20.864Z,3.80
2022-08-26T15:37:09.787Z,2.80
2022-08-26T15:39:57.410Z,3.00
2022-08-26T15:42:44.576Z,3.50
2022-08-26T15:45:39.158Z,2.80
2022-08-26T15:48:26.249Z,3.30
2022-08-26T15:51:29.574Z,2.70
2022-08-26T15:54:17.333Z,2.20
2022-08-26T15:57:05.417Z,2.70
2022-08-26T15:59:55.192Z,2.30
2022-08-26T16:02:42.122Z,2.50
2022-08-26T16:05:28.723Z,2.50
2022-08-26T16:08:16.239Z,3.60
2022-08-26T16:11:04.204Z,2.70
2022-08-26T16:13:51.240Z,2.90
2022-08-26T16:16:40.473Z,3.20
2022-08-26T16:19:27.484Z,2.30
2022-08-26T16:22:14.842Z,2.60
2022-08-26T16:25:01.830Z,3.00
2022-08-26T16:27:48.262Z,3.00
2022-08-26T16:30:35.039Z,2.80
2022-08-26T16:33:29.316Z,2.80
2022-08-26T16:36:16.727Z,3.30
2022-08-26T16:39:05.901Z,3.00
2022-08-26T16:41:52.769Z,3.20
2022-08-26T16:44:45.481Z,3.20
2022-08-26T16:47:33.802Z,3.00
2022-08-26T16:50:21.619Z,2.40
2022-08-26T16:56:00.962Z,3.30
2022-08-26T16:58:48.986Z,3.40
2022-08-26T17:01:35.865Z,3.60
2022-08-26T17:04:23.179Z,3.70
2022-08-26T17:07:10.374Z,4.00
2022-08-26T17:09:57.840Z,3.10
2022-08-26T17:12:46.251Z,3.80
2022-08-26T17:15:33.317Z,4.00
2022-08-26T17:18:25.617Z,3.10
2022-08-26T17:21:14.034Z,3.40
2022-08-26T17:24:01.611Z,3.70
2022-08-26T17:26:53.528Z,3.20
2022-08-26T17:29:42.742Z,3.50
2022-08-26T17:32:30.025Z,3.60
2022-08-26T17:35:16.881Z,3.70
2022-08-26T17:38:03.928Z,3.70
2022-08-26T17:40:51.534Z,3.90
2022-08-26T17:43:40.128Z,4.50
2022-08-26T17:46:27.217Z,4.00
2022-08-26T17:49:14.701Z,4.20
2022-08-26T17:52:01.826Z,4.60
2022-08-26T17:54:52.984Z,5.10
2022-08-26T17:57:40.600Z,4.90
2022-08-26T18:00:29.514Z,4.80
2022-08-26T18:03:17.791Z,4.50
2022-08-26T18:06:10.128Z,4.20
2022-08-26T18:08:58.236Z,4.90
2022-08-26T18:11:45.243Z,3.70
2022-08-26T18:14:33.784Z,5.60
2022-08-26T18:17:20.564Z,5.10
2022-08-26T18:20:15.632Z,5.20
2022-08-26T18:23:02.841Z,6.00
2022-08-26T18:25:49.486Z,4.70
2022-08-26T18:28:36.051Z,4.90
2022-08-26T18:31:23.396Z,5.60
2022-08-26T18:34:13.141Z,5.00
2022-08-26T18:37:00.119Z,5.10
2022-08-26T18:39:47.079Z,5.10
2022-08-26T18:42:34.176Z,4.90
2022-08-26T18:45:21.023Z,5.90
2022-08-26T18:48:07.784Z,5.20
2022-08-26T18:50:55.341Z,5.20
2022-08-26T18:53:42.206Z,5.20
2022-08-26T18:56:30.170Z,5.70
2022-08-26T18:59:17.522Z,6.10
2022-08-26T19:02:04.661Z,6.60
2022-08-26T19:04:52.040Z,7.40
2022-08-26T19:07:39.714Z,6.90
2022-08-26T19:10:27.579Z,7.60
2022-08-26T19:13:14.713Z,7.10
2022-08-26T19:16:02.998Z,8.30
2022-08-26T19:18:50.841Z,8.50
2022-08-26T19:21:39.361Z,8.70
2022-08-26T19:24:28.324Z,8.60
2022-08-26T19:27:15.267Z,9.00
2022-08-26T19:30:01.981Z,9.60
2022-08-26T19:32:48.991Z,10.60
2022-08-26T19:35:36.477Z,10.50
2022-08-26T19:38:24.155Z,9.70
2022-08-26T19:41:26.567Z,9.90
2022-08-26T19:44:42.874Z,9.00
2022-08-26T19:47:30.123Z,9.90
2022-08-26T19:50:17.467Z,8.90
2022-08-26T19:53:04.931Z,9.10
2022-08-26T19:55:52.163Z,9.90
2022-08-26T19:58:39.889Z,9.20
2022-08-26T20:01:26.864Z,9.10
2022-08-26T20:04:14.300Z,8.40
2022-08-26T20:07:02.275Z,8.70
2022-08-26T20:09:50.380Z,7.90
2022-08-26T20:12:37.304Z,8.00
2022-08-26T20:15:24.543Z,8.30
2022-08-26T20:18:34.310Z,7.20
2022-08-26T20:21:27.450Z,7.50
2022-08-26T20:24:17.363Z,7.40
2022-08-26T20:27:07.711Z,7.70
2022-08-26T20:29:56.141Z,6.20
2022-08-26T20:32:43.586Z,9.00
2022-08-26T20:35:30.209Z,8.00
2022-08-26T20:38:20.975Z,8.10
2022-08-26T20:41:08.876Z,8.00
2022-08-26T20:43:56.717Z,7.70
2022-08-26T20:46:44.492Z,8.00
2022-08-26T20:49:32.360Z,7.60
2022-08-26T20:52:21.816Z,8.10
2022-08-26T20:55:10.064Z,8.40
2022-08-26T20:57:56.830Z,7.90
2022-08-26T21:00:48.276Z,7.70
2022-08-26T21:03:36.506Z,7.80
2022-08-26T21:06:24.042Z,7.40
2022-08-26T21:09:12.788Z,7.90
2022-08-26T21:12:02.126Z,9.10
2022-08-26T21:14:49.771Z,8.90
2022-08-26T21:17:39.056Z,7.60
2022-08-26T21:20:26.281Z,7.70
2022-08-26T21:23:15.212Z,8.30
2022-08-26T21:26:04.120Z,7.10
2022-08-26T21:28:51.821Z,8.20
2022-08-26T21:31:44.889Z,8.50
2022-08-26T21:34:32.794Z,8.00
2022-08-26T21:37:19.754Z,8.00
2022-08-26T21:40:12.755Z,7.80
2022-08-26T21:42:59.983Z,6.90
2022-08-26T21:45:47.231Z,8.70
2022-08-26T21:48:35.222Z,8.00
2022-08-26T21:51:24.518Z,8.50
2022-08-26T21:54:12.802Z,8.90
2022-08-26T21:57:00.235Z,7.40
2022-08-26T21:59:47.226Z,8.50
2022-08-26T22:02:34.943Z,8.60
2022-08-26T22:05:21.886Z,8.30
2022-08-26T22:08:09.169Z,7.20
2022-08-26T22:10:57.306Z,8.00
2022-08-26T22:13:44.473Z,8.70
2022-08-26T22:16:31.208Z,8.50
2022-08-26T22:19:23.452Z,8.30
2022-08-26T22:22:10.939Z,7.50
2022-08-26T22:24:58.065Z,7.20
2022-08-26T22:27:45.114Z,7.60
2022-08-26T22:30:32.302Z,8.10
2022-08-26T22:33:19.318Z,7.80
2022-08-26T22:36:06.516Z,7.80
2022-08-26T22:38:54.854Z,8.30
2022-08-26T22:41:44.492Z,8.00
2022-08-26T22:44:31.975Z,7.20
2022-08-26T22:47:19.363Z,8.50
2022-08-26T22:50:07.288Z,8.30
2022-08-26T22:52:54.178Z,8.30
2022-08-26T22:55:41.259Z,8.10
2022-08-26T23:03:36.003Z,7.80
2022-08-26T23:06:23.358Z,7.40
2022-08-26T23:09:14.895Z,6.90
2022-08-26T23:12:01.933Z,7.10
2022-08-26T23:14:49.169Z,9.00
2022-08-26T23:17:41.353Z,8.20
2022-08-26T23:20:34.171Z,10.20
2022-08-26T23:23:21.093Z,8.90
2022-08-26T23:26:08.782Z,9.90
2022-08-26T23:28:56.201Z,10.20
2022-08-26T23:31:43.192Z,10.70
2022-08-26T23:34:48.785Z,8.90
2022-08-26T23:37:39.432Z,9.30
2022-08-26T23:40:32.442Z,8.70
2022-08-26T23:43:20.019Z,9.50
2022-08-26T23:46:07.162Z,8.70
2022-08-26T23:48:54.276Z,8.10
2022-08-26T23:51:59.920Z,8.80
2022-08-26T23:54:48.972Z,8.40
2022-08-26T23:57:35.805Z,7.80
